x

9410840 - Santa Monica Pier (icac1) Weather Station

7:54 - Sun 25th Sep 2016 All times are PDT. -7 hours from GMT.

  • Wind
    5mph, 6mph gusts
  • Sea Temp 67°f
  • Ar Temp 70°f
  • Sea Pressure 1016.4mb
  • 9410840 - Santa Monica Pier
  • 9410840 - Santa Monica Pier

More Historic Weather Station data

Upgrade to MSW Pro to gain access to the past 30 days of data for over 8000 Wavebouys and Weather Stations around the globe.

Join Pro

Comparision Forecast

View Surf forecast
   
Dom 09/25 7:54 5 6 mph 1016.4mb 67f 70f
7:48 5 7 mph 1016.4mb 67f 70f
7:42 6 7 mph 1016.2mb 66f 69f
7:36 6 7 mph 1016.3mb 66f 69f
7:30 5 6 mph 1016.3mb 66f 68f
7:24 5 6 mph 1016.2mb 66f 67f
7:18 3 6 mph 1016.2mb 67f 67f
7:12 6
mph
1016.1mb 67f 68f
7:06 6 7 mph 1016mb 67f 68f
7:00 2 6 mph 1015.9mb 67f 68f
6:54 6
mph
1015.9mb 67f 67f
6:48 6
mph
1015.8mb 67f 66f
6:42 7
mph
1015.8mb 67f 65f
6:36 3 5 mph 1015.7mb 67f 66f
6:30 2 3 mph 1015.6mb 67f 67f
6:24 2 3 mph 1015.4mb 67f 67f
6:18 2
mph
1015.3mb 67f 67f
6:12 1 2 mph 1015.3mb 67f 68f
6:06 1 2 mph 1015.3mb 67f 67f
6:00 2 5 mph 1015.1mb 67f 67f
5:54 3 5 mph 1015.1mb 67f 67f
5:48 3
mph
1014.9mb 67f 68f
5:42 3 5 mph 1014.9mb 67f 69f
5:36 2 5 mph 1014.9mb 67f 68f
5:30 6
mph
1015mb 67f 68f
5:24 3 5 mph 1015mb 67f 68f
5:18 2 5 mph 1014.9mb 67f 69f
5:12 3 5 mph 1014.9mb 67f 70f
5:06 6 8 mph 1014.9mb 67f 71f
5:00 7 8 mph 1014.7mb 67f 70f
4:54 8 11 mph 1014.7mb 67f 74f
4:48 10 11 mph 1014.6mb 66f 71f
4:42 9 11 mph 1014.6mb 66f 71f
4:36 8 11 mph 1014.6mb 66f 71f
4:30 10 11 mph 1014.5mb 66f 71f
4:24 9 10 mph 1014.5mb 66f 70f
4:18 8 9 mph 1014.5mb 66f 71f
4:12 8 9 mph 1014.6mb 66f 70f
4:06 8 9 mph 1014.6mb 66f 69f
4:00 6 10 mph 1014.7mb 66f 70f
3:54 9 10 mph 1014.7mb 66f 71f
3:48 7 9 mph 1014.7mb 66f 69f
3:42 8 9 mph 1014.6mb 66f 69f
3:36 7 8 mph 1014.7mb 66f 69f
3:30 6 7 mph 1014.8mb 66f 69f
3:24 6 7 mph 1014.7mb 66f 70f
3:18 6 8 mph 1014.7mb 66f 71f
3:12 7 8 mph 1014.7mb 66f 70f
3:06 5 7 mph 1014.9mb 66f 70f
3:00 7
mph
1014.9mb 66f 70f
2:54 5 6 mph 1015.1mb 66f 69f
2:48 2 3 mph - - -
2:42 3 5 mph 1015.2mb 66f 69f
2:36 2 3 mph 1015.3mb 66f 68f
2:30 3 6 mph 1015.1mb 66f 68f
2:24 5 6 mph 1015.2mb 66f 69f
2:18 5 6 mph 1015.2mb 67f 69f
2:12 6 7 mph 1015.1mb 67f 69f
2:06 6
mph
1015.3mb 67f 69f
2:00 5 6 mph 1015.2mb 68f 69f
1:54 5 7 mph 1015.2mb 68f 69f
1:48 6 7 mph 1015.2mb 68f 69f
1:42 7 8 mph 1015.1mb 68f 70f
1:36 7 8 mph 1015.1mb 68f 70f
1:30 7 8 mph 1015.1mb 68f 70f
1:24 5 6 mph 1015.1mb 68f 70f
1:18 6 7 mph 1015mb 68f 71f
1:12 5 6 mph 1015mb 68f 69f
1:06 5
mph
1014.9mb 68f 68f
1:00 3 5 mph 1015mb 68f 67f
12:54 3 5 mph 1014.9mb 67f 68f
12:48 2
mph
1014.7mb 67f 68f
12:42 2
mph
1014.6mb 67f 68f
12:36  -  3 mph 1014.6mb 67f 69f
12:30 2 3 mph 1014.6mb 67f 70f
12:24 2 5 mph 1014.6mb 67f 71f
12:18 5 6 mph 1014.6mb 67f 70f
12:12 2 5 mph 1014.6mb 67f 70f
12:06 5 6 mph 1014.5mb 67f 71f
12:00 3 6 mph 1014.5mb 67f 71f
Sáb 09/24 11:54 5 6 mph 1014.6mb 67f 70f
11:48 6 7 mph 1014.7mb 67f 70f
11:42 6 7 mph 1014.8mb 67f -
11:36 6
mph
1014.7mb 67f -
11:30 2 5 mph 1014.6mb 67f 70f
11:24 3 7 mph 1014.7mb 67f 69f
11:18 3 5 mph 1014.7mb 67f 70f
11:12 2 5 mph 1014.7mb 67f 71f
11:06 3 6 mph 1014.7mb 67f 71f
11:00 3 6 mph 1014.8mb 67f 71f
10:54 5 6 mph 1015mb 67f 71f
10:48 1 2 mph 1014.9mb 67f 71f
10:42 2 5 mph - - -
10:36 2 5 mph - - -
10:30 3 6 mph 1015mb 67f 70f
10:24 5 6 mph 1014.8mb 67f 71f
10:18 6 7 mph 1014.8mb 67f 70f
10:12 7 8 mph 1014.7mb 67f 70f
10:06 7 8 mph 1014.7mb 67f 70f
10:00 6 7 mph 1014.6mb 68f 70f
9:54 6 7 mph 1014.5mb 68f 70f
9:48 6 7 mph 1014.6mb 68f 70f
9:42 6 8 mph 1014.6mb 68f 70f
9:36 6 7 mph 1014.6mb 68f 70f
9:30 6 7 mph 1014.7mb 68f 70f
9:24 5 6 mph 1014.6mb 68f 70f
9:18 5 6 mph 1014.7mb 68f 70f
9:12 3 7 mph 1014.7mb 68f 71f
9:06 6 9 mph 1014.7mb 68f 71f
9:00 7
mph
1014.7mb 68f 70f
8:54 5 7 mph 1014.6mb 68f 70f
8:48 6 9 mph - - -
8:42 8
mph
1014.6mb 68f 70f
8:36 6 9 mph 1014.7mb 68f 70f
8:30 7 9 mph 1014.6mb 68f 70f
8:24 6 7 mph 1014.5mb 68f 70f
8:18 6 8 mph 1014.3mb 68f 70f
8:12 6
mph
1014.3mb 68f 70f
8:06 3 5 mph 1014.2mb 68f 70f
8:00 6 8 mph 1014.2mb 68f 70f
7:54 8 9 mph 1014.2mb 68f 70f
7:48 8
mph
1014.2mb 68f 70f
7:42 7 8 mph 1014.2mb 68f 70f
7:36 8
mph
1014.2mb 68f 70f
7:30 7 8 mph 1014.2mb 68f 70f
7:24 7 8 mph 1014.2mb 68f 70f
7:18 7 8 mph 1014.2mb 68f 69f
7:12 6
mph
1014.2mb 68f 69f
7:06 5 7 mph 1014.2mb 68f 69f
7:00 6
mph
1014.2mb 68f 69f
6:54 3 5 mph 1014.1mb 68f 69f
6:48 2 5 mph 1014mb - -
6:42 3 5 mph 1014.1mb 68f 71f
6:36 3
mph
1014.1mb 68f 71f
6:30  -  5 mph 1014mb 68f -
6:24 3 5 mph 1014mb 68f -
6:18 2 5 mph 1014mb - -
6:12 5
mph
1014.1mb 68f 70f
6:06 3
mph
1014mb 68f 71f
6:00 2 5 mph 1014.1mb 68f 71f
5:54 3 5 mph 1014.1mb 68f 71f
5:48 3
mph
- - -
5:42 3 5 mph 1014mb 68f 72f
5:36 3 5 mph 1014mb 68f 71f
5:30 3
mph
1014.1mb 68f 72f
5:24 3 5 mph 1014.1mb 68f 72f
5:18 2 5 mph 1014.1mb - -
5:12 3 5 mph 1014.1mb 68f 73f
5:06 2 3 mph 1014.1mb 68f 73f
5:00 1 5 mph 1014.1mb 68f 73f
4:54 3 6 mph 1014.1mb 68f 72f
4:48 3 7 mph 1014.2mb - -
4:42 7 8 mph 1014.2mb 68f -
4:36 7 8 mph 1014.2mb 68f -
4:30 8 9 mph 1014.3mb 68f 71f
4:24 8 9 mph 1014.3mb 68f 71f
4:18 5 6 mph - - -
4:12 6 8 mph 1014.5mb 68f 71f
4:06 7 8 mph 1014.4mb 68f 71f
4:00  -  mph 1014.5mb 68f 71f
3:54  -  mph 1014.5mb 68f 71f
3:48 8 10 mph 1014.5mb 67f -
3:42 8 10 mph 1014.6mb 67f -
3:36 6 8 mph 1014.6mb 67f -
3:30 5 6 mph - 68f -
3:24 6 7 mph - 68f -
3:18 5 7 mph 1014.8mb - -
3:12 2 5 mph 1014.9mb 68f 73f
3:06 5 6 mph 1014.9mb 68f 72f
3:00 5 6 mph 1014.9mb 68f 71f
2:54 5 6 mph 1014.9mb 68f 71f
2:48 5 6 mph 1015mb 68f 70f
2:42 5 6 mph 1015mb 68f 70f
2:36 5 6 mph 1015.1mb 68f 70f
2:30 5 7 mph 1015.1mb 68f 70f
2:24 6 7 mph 1015.1mb 68f 70f
2:18 6 7 mph 1015.1mb 68f 70f
2:12 6
mph
1015.2mb 68f 70f
2:06 6
mph
1015.3mb 68f 70f
2:00 6
mph
1015.4mb 68f 70f
1:54 5 6 mph 1015.6mb 68f 70f
1:48 6
mph
1015.6mb 68f 69f
1:42 6
mph
1015.7mb 68f 69f
1:36 6
mph
1015.8mb 68f 69f
1:30 6
mph
1015.8mb 68f 69f
1:24 6 7 mph 1015.9mb 68f 69f
1:18 6 7 mph 1016mb 68f 69f
1:12 7 8 mph 1016mb 68f 69f
1:06 7 8 mph 1016.1mb 68f 69f
1:00 7 8 mph 1016.2mb 68f 69f
12:54 7 8 mph 1016.3mb 68f 69f
12:48 7
mph
1016.2mb 68f 69f
12:42 6 7 mph 1016.2mb 68f 69f
12:36 5 6 mph 1016.2mb 68f 69f
12:30 5
mph
1016.3mb 68f 69f
12:24 5 6 mph 1016.4mb 68f 69f
12:18 5 6 mph - - -
12:12 6
mph
1016.4mb 68f 69f
12:06 6
mph
1016.4mb 67f 68f
12:00 6
mph
1016.4mb 67f 68f
11:54 5
mph
1016.5mb 67f 68f
11:48 3 5 mph 1016.5mb 67f 68f
11:42 5
mph
1016.6mb 67f 68f
11:36 5
mph
1016.5mb 67f 68f
11:30 5 6 mph 1016.5mb 67f 68f
11:24 5
mph
1016.6mb 67f 68f
11:18 3 6 mph 1016.6mb 67f 68f
11:12 5
mph
1016.6mb 67f 67f
11:06 3 5 mph 1016.7mb 67f 68f
11:00 3 5 mph 1016.7mb 67f 68f
10:54 3 6 mph 1016.7mb 67f 67f
10:48 6
mph
1016.7mb 67f 67f
10:42 6 7 mph 1016.7mb 67f 67f
10:36 6 7 mph 1016.8mb 67f 67f
10:30 6 7 mph 1016.8mb 67f 67f
10:24 6 7 mph 1016.8mb 67f 67f
10:18 6 7 mph 1016.8mb 67f 67f
10:12 6 7 mph 1016.8mb 67f 68f
10:06 6 7 mph 1016.8mb 67f 67f
10:00 5 6 mph 1016.7mb 67f 68f
9:54 3 5 mph 1016.6mb 66f 68f
9:48 3 5 mph 1016.6mb 67f 67f
9:42 5
mph
1016.5mb 67f 67f
9:36 2 3 mph 1016.5mb 67f 68f
9:30 2
mph
1016.5mb 66f 68f
9:24 1
mph
1016.5mb 66f 68f
9:18 1 2 mph 1016.3mb 66f 67f
9:12 1 2 mph 1016.3mb 66f 67f
9:06 2
mph
1016.3mb 66f 67f
9:00  -  2 mph 1016.3mb 66f 68f
8:54 1 2 mph 1016.1mb 66f 68f
8:48 2
mph
1016.2mb 66f 68f
8:42  -  2 mph 1016.1mb 66f 69f
8:36 1 2 mph 1016.1mb 66f 69f
8:30 1 2 mph 1016mb 66f 69f
8:24 1
mph
1016mb 66f 70f
8:18  -  1 mph 1016mb 66f 70f
8:12 1 2 mph 1016.1mb 66f 68f
8:06 1 2 mph 1016mb 66f 69f
8:00  -  1 mph 1016mb 66f 69f
7:54 2 3 mph 1015.9mb 66f 67f
7:48 2 5 mph 1015.9mb 66f 67f
7:42 3 6 mph 1015.9mb 66f 67f
7:36 3 5 mph 1015.9mb 66f 66f
7:30 2 6 mph 1015.9mb 66f 65f
7:24 2 3 mph 1015.9mb 66f 65f
7:18 2 6 mph 1015.9mb 66f 64f
7:12 6 9 mph 1015.9mb 66f 63f
7:06 3 6 mph 1015.9mb 66f 63f
7:00 3 5 mph 1015.9mb 66f 64f
6:54 3 5 mph 1015.8mb 66f 64f
6:48 3 5 mph 1015.8mb 66f 63f
6:42 3 5 mph 1015.8mb 66f 63f
6:36 3 5 mph 1015.7mb 66f 63f
6:30 3 5 mph 1015.6mb 66f 63f
6:24 3
mph
1015.5mb 66f 63f
6:18 2 3 mph 1015.5mb 66f 63f
6:12 2 3 mph 1015.4mb 66f 64f
6:06  -  2 mph 1015.4mb 66f 65f
6:00 2
mph
1015.4mb 66f 65f
5:54  -  5 mph 1015.5mb 66f 66f
5:48 3 6 mph 1015.6mb 66f 67f
5:42 6
mph
1015.4mb 66f 67f
5:36 6
mph
1015.4mb 66f 67f
5:30 5 6 mph 1015.2mb 66f 66f
5:24 6
mph
1015.2mb 66f 65f
5:18 6
mph
1015.2mb 66f 65f
5:12 6
mph
1015.1mb 66f 66f
5:06 3 5 mph 1015mb 66f 66f
5:00 3
mph
1015mb 66f 65f
4:54 2
mph
1015mb 66f 66f
4:48 2 5 mph 1014.9mb 66f 66f
4:42 3 5 mph 1014.9mb 66f 65f
4:36 2 3 mph 1014.9mb 66f 65f
4:30 2
mph
1014.9mb 66f 65f
4:24 1 2 mph 1014.9mb 66f 65f
4:18 1 2 mph 1014.8mb 66f 65f
4:12 2 3 mph 1014.8mb 66f 65f
4:06 3 5 mph 1014.8mb 66f 65f
4:00 3 5 mph 1014.8mb 66f 65f
3:54 2 3 mph 1014.9mb 66f 65f
3:48 2 5 mph 1014.9mb 66f 65f
3:42 5
mph
1014.7mb 66f 64f
3:36 2
mph
1014.6mb 66f 64f
3:30 1 3 mph 1014.5mb 66f 64f
3:24 1 2 mph 1014.6mb 66f 64f
3:18 2
mph
1014.6mb 66f 64f
3:12 2 5 mph 1014.7mb 66f 64f
3:06 3
mph
1014.7mb 66f 64f
3:00 2 3 mph 1014.7mb 66f 64f
2:54 3
mph
1014.7mb 66f 65f
2:48 2 3 mph 1014.8mb 66f 64f
2:42 2 3 mph 1015.1mb 66f 64f
2:36  -  2 mph 1015mb 66f 64f
2:30  -  mph 1015mb 66f 65f
2:24  -  1 mph 1014.9mb 66f 65f
2:18  -  1 mph 1014.9mb 66f 65f
2:12 1 2 mph 1014.9mb 66f 66f
2:06  -  3 mph 1014.9mb 66f 66f
2:00 3
mph
1015mb 66f 67f
1:54 2 3 mph 1015mb 66f 67f
1:48 3
mph
1014.9mb 66f 66f
1:42 2 5 mph 1015mb 66f 66f
1:36 5
mph
1014.9mb 66f 66f
1:30 2
mph
1014.8mb 66f 66f
1:24 2 3 mph 1014.7mb 66f 66f
1:18 2 3 mph 1014.6mb 66f 66f
1:12 2 3 mph 1014.6mb 66f 66f
1:06 3 5 mph 1014.7mb 66f 66f
1:00 5 6 mph 1014.6mb 66f 66f
12:54 5 6 mph 1014.6mb 66f 66f
12:48 6
mph
1014.5mb 66f 66f
12:42 5 7 mph 1014.5mb 66f 65f
12:36 6
mph
1014.5mb 66f 66f
12:30 5 6 mph 1014.6mb 66f 66f
12:24 3 5 mph 1014.6mb 66f 66f
12:18 3 5 mph 1014.6mb 66f 66f
12:12 2 3 mph 1014.7mb 66f 66f
12:06 2 3 mph 1014.7mb 66f 66f
12:00 2 3 mph 1014.8mb 66f 66f
Sex 09/23 11:54 2 3 mph 1014.8mb 66f 66f
11:48 2 3 mph 1014.9mb 66f 66f
11:42 2 3 mph 1014.8mb 66f 66f
11:36 2 6 mph 1014.9mb 66f 66f
11:30 5 7 mph 1014.8mb 66f 65f
11:24 6 7 mph 1014.7mb 66f 66f
11:18 6 7 mph 1014.7mb 66f 66f
11:12 6 7 mph 1014.6mb 66f 66f
11:06 3
mph
1014.6mb 66f 66f
11:00 2 3 mph 1014.7mb 66f 67f
10:54 1 5 mph 1014.6mb 66f 67f
10:48 1 5 mph 1014.7mb 66f 66f
10:42 5
mph
1014.6mb 66f 66f
10:36 2 3 mph 1014.6mb 66f 66f
10:30 3 7 mph 1014.6mb 66f 66f
10:24 5 8 mph 1014.6mb 66f 67f
10:18 1 2 mph 1014.5mb 66f 68f
10:12  -  7 mph 1014.4mb 66f 68f
10:06 6 7 mph 1014.2mb 67f 68f
10:00 5 6 mph 1014.3mb 67f 68f
9:54 3 5 mph 1014.3mb 67f 68f
9:48 3 6 mph 1014.3mb 67f 68f
9:42 5 7 mph 1014.3mb 67f 68f
9:36 5 7 mph 1014.3mb 67f 69f
9:30 5 7 mph 1014.3mb 67f 68f
9:24 6
mph
1014.2mb 67f 68f
9:18 5 6 mph 1014.2mb 67f 68f
9:12 3 5 mph 1014.2mb 67f 68f
9:06 3 5 mph 1014.2mb 67f 68f
9:00 3 5 mph 1014.2mb 67f 68f
8:54 5
mph
1014.1mb 67f 68f
8:48 3 5 mph - - -
8:42 5 6 mph 1014mb 67f 68f
8:36 5 6 mph 1014.1mb 67f 68f
8:30 5 6 mph 1014.1mb 67f 68f
8:24 3 5 mph 1014mb 67f 68f
8:18 3 5 mph 1014.1mb 67f 68f
8:12 3 5 mph 1014mb 67f 67f
8:06 3 5 mph 1014mb 67f 67f
8:00 5 6 mph 1013.9mb 67f 67f
7:54 6 7 mph 1013.9mb 67f 67f
7:48 7 8 mph 1013.9mb 67f 67f
7:42 7 8 mph 1013.9mb 67f 67f
7:36 8
mph
1013.9mb 67f 67f
7:30 8 9 mph 1013.9mb 67f 67f
7:24 8
mph
1013.9mb 67f 67f
7:18 7
mph
1014mb - -
7:12 7 8 mph 1013.9mb 67f 67f
7:06 7
mph
1013.9mb 67f 67f
7:00 7
mph
1013.9mb 67f 68f
6:54 6 7 mph 1013.9mb 67f 68f
6:48 7
mph
1013.9mb - -
6:42 7 8 mph 1013.9mb 67f 69f
6:36 7 8 mph 1013.9mb 67f 69f
6:30 7
mph
1013.9mb 67f 69f
6:24 6 7 mph 1013.9mb 67f 70f
6:18 7
mph
- - -
6:12 6
mph
1014mb 67f 71f
6:06 6 7 mph 1014mb 67f 71f
6:00 6 7 mph 1013.9mb 67f 71f
5:54 6
mph
1013.9mb 67f 72f
5:48  -  mph 1013.9mb - -
5:42  -  mph 1013.9mb 67f -
5:36  -  mph 1014mb 67f -
5:30 7 8 mph 1014.1mb 67f 72f
5:24 6 7 mph 1014.1mb 67f 73f
5:18 3 5 mph - - -
5:12  -  1 mph 1014.1mb 67f 75f
5:06  -  1 mph 1014.1mb 67f 74f
5:00 1 3 mph 1014.1mb 67f 70f
4:54 2 3 mph 1014.2mb 67f 70f
4:48 2 5 mph 1014.2mb - -
4:42 5 6 mph 1014.2mb 67f -
4:36 5 6 mph 1014.2mb 67f -
4:30 6 7 mph - 67f -
4:24 6 7 mph - 67f -
4:18 7 8 mph 1014.3mb 67f 68f
4:12 7 8 mph 1014.3mb 67f 68f
4:06 8 9 mph 1014.3mb 67f 68f
4:00 8 10 mph 1014.3mb 67f 68f
3:54 10 13 mph 1014.3mb 67f 67f
3:48 10 13 mph 1014.3mb - -
3:42 11 13 mph 1014.2mb 66f -
3:36 13 14 mph 1014.3mb 66f -
3:30 13 15 mph 1014.2mb 66f 67f
3:24 13 15 mph 1014.1mb 66f 67f
3:18 14 16 mph - - -
3:12 15 17 mph 1014.2mb 66f 67f
3:06 14 16 mph 1014.3mb 67f 67f
3:00 15 16 mph 1014.3mb 66f -
2:54 14 16 mph 1014.2mb 66f -
2:48 14 15 mph 1014.3mb 66f 67f
2:42 13 15 mph 1014.4mb 66f 67f
2:36 13 15 mph 1014.4mb 66f 67f
2:30 13 14 mph 1014.3mb 66f 67f
2:24 13 14 mph 1014.5mb 66f 66f
2:18 11 15 mph 1014.6mb 66f 66f
2:12 13 14 mph 1014.6mb 66f 66f
2:06 11 14 mph 1014.7mb 66f 66f
2:00 10 13 mph 1014.9mb 66f 66f
1:54 11 14 mph 1014.8mb 66f 66f
1:48 13 15 mph 1014.9mb 66f 66f
1:42 13 15 mph 1015.1mb 66f 66f
1:36 14 15 mph 1015.2mb 66f 66f
1:30 13 15 mph 1015.4mb 66f 66f
1:24 13 15 mph 1015.4mb 66f 66f
1:18 13 14 mph 1015.4mb 66f 66f
1:12 13 14 mph 1015.6mb 66f 66f
1:06 13 14 mph 1015.6mb 66f 66f
1:00 13 15 mph 1015.6mb 66f 66f
12:54 14 15 mph 1015.6mb 66f 66f
12:48 13 14 mph 1015.6mb 66f 66f
12:42 15 16 mph 1015.5mb 66f 66f
12:36 16
mph
1015.7mb 66f 65f
12:30 14
mph
1016mb 66f 66f
12:24 13 14 mph 1016.2mb 66f 66f
12:18 14 15 mph 1016.1mb 66f 66f
12:12 13 14 mph 1016.1mb 66f 66f
12:06 13 14 mph 1016mb 66f 65f
12:00 11 13 mph 1016.3mb 66f 66f
11:54 13 14 mph 1016.3mb 66f 65f
11:48 13 14 mph 1016.3mb 66f 65f
11:42 13 14 mph 1016.5mb 66f 66f
11:36 11 13 mph 1016.6mb 66f 66f
11:30 13 14 mph 1016.7mb 66f 66f
11:24 10 11 mph 1016.7mb 66f 66f
11:18 10
mph
1016.7mb 66f 66f
11:12 8 9 mph 1016.6mb 66f 66f
11:06 8 9 mph 1016.6mb 66f 66f
11:00 9 10 mph 1016.6mb 66f 66f
10:54 9 10 mph 1016.6mb 66f 65f
10:48 8 10 mph 1016.6mb 66f 65f
10:42 9 11 mph 1016.7mb 65f 65f
10:36 10 11 mph 1016.6mb 65f 66f
10:30 9 10 mph 1016.5mb 65f 66f
10:24 9 10 mph 1016.6mb 65f 66f
10:18 9
mph
1016.4mb 65f 66f
10:12 7 8 mph 1016.5mb 65f 66f
10:06 8
mph
1016.4mb 65f 66f
10:00 7 8 mph 1016.3mb 65f 66f
9:54 6 9 mph 1016.2mb 65f 67f
9:48 7 10 mph 1016.1mb 65f 67f
9:42 8 9 mph 1016mb 65f 67f
9:36 8 10 mph 1015.9mb 65f 67f
9:30 8 10 mph 1016mb 65f 67f
9:24 7 8 mph 1015.8mb 65f 66f
9:18 7 8 mph 1015.9mb 65f 67f
9:12 7 8 mph 1015.9mb 65f 67f
9:06 6 7 mph 1015.7mb 65f 67f
9:00 3 6 mph 1015.8mb 65f 67f
8:54 6 8 mph 1015.7mb 64f 66f
8:48 5 7 mph 1015.7mb 64f 66f
8:42 7 9 mph 1015.7mb 64f 65f
8:36 5 6 mph 1015.6mb 64f 66f
8:30 6 8 mph 1015.8mb 64f 65f
8:24 8 9 mph 1015.9mb 64f 65f
8:18 7 10 mph 1016.1mb 64f 65f
8:12 8 11 mph 1016.1mb 64f 64f
8:06 9 13 mph 1016.1mb 64f 64f
8:00 8 10 mph 1016mb 64f 64f
7:54 9 11 mph 1015.9mb 64f 64f
7:48 9 10 mph 1015.9mb 64f 64f
7:42 9 13 mph 1015.8mb 64f 64f
7:36 8 10 mph 1015.7mb 64f 64f
7:30 6 8 mph 1015.6mb 64f 63f
7:18 6 9 mph 1015.5mb 64f 63f
7:12 7 10 mph 1015.2mb 64f 63f
6:54 6 8 mph 1015mb 64f 63f
6:48 5 7 mph 1015mb 64f 63f
6:42 7 8 mph 1015mb 64f 63f
6:24 6 8 mph 1014.9mb 64f 63f
6:12 6 9 mph 1015mb 64f 63f
6:06 6 10 mph 1014.9mb 64f 63f
5:54 7 10 mph 1014.7mb 64f 63f
5:48 8 10 mph 1014.7mb 64f 63f
5:42 7 10 mph 1014.6mb 64f 63f
5:30 6 10 mph 1014.5mb 63f 63f
5:24 7 9 mph 1014.5mb 63f 63f
5:18 7 9 mph 1014.5mb 63f 63f
5:12 7 10 mph 1014.4mb 63f 63f
5:06 7 11 mph 1014.4mb 63f 63f
5:00 8 11 mph 1014.3mb 63f 63f
4:54 7 11 mph 1014.3mb 63f 63f
4:48 9 11 mph 1014.2mb 63f 63f
4:42 9 11 mph 1014.2mb 63f 63f
4:36 7 9 mph 1014.1mb 63f 63f
4:30 6 10 mph 1014mb 63f -
4:24 7 10 mph 1014mb 63f 63f
4:18 8 10 mph 1013.9mb 62f 63f
4:12 7 11 mph 1013.9mb 63f 63f
4:06 7 11 mph 1013.9mb 62f 63f
4:00 8 13 mph 1014mb 62f 63f
3:54 9 13 mph 1014mb 62f 63f
3:48 8 11 mph 1013.9mb 62f 63f
3:42 9 15 mph 1013.8mb 62f 64f
3:36 9 11 mph 1013.8mb 63f 63f
3:30 8 13 mph 1013.8mb 62f 64f
3:24 7 10 mph 1013.7mb 63f 64f
3:18 7 13 mph 1013.8mb 63f 64f
3:12 8 13 mph 1013.8mb 62f 64f
3:06 8 14 mph 1013.9mb 63f 64f
3:00 8 15 mph 1013.9mb 63f 64f
2:54 10 13 mph 1013.7mb 64f 65f
2:48 9 14 mph 1013.6mb 64f 65f
2:42 9 15 mph 1013.7mb 64f 65f
2:36 13 16 mph 1013.6mb 64f 67f
2:30 9 10 mph 1013.4mb 64f 67f
2:24 6 8 mph 1013.4mb 65f 68f
2:18 6 8 mph 1013.4mb 65f 67f
2:00 2 5 mph 1013.3mb 65f 69f
1:54 3 5 mph 1013.2mb 65f 69f
1:42 1
mph
1013.1mb 65f 69f
1:36 1 7 mph 1013.1mb 65f 69f
1:24 2 9 mph 1013mb 65f 70f
1:18 3 9 mph 1013mb 65f 70f
1:00 13 16 mph 1012.9mb 65f 71f
12:54 5 13 mph 1013.2mb 65f 71f
12:42 9 11 mph 1013.2mb 66f 71f
12:36 5 9 mph 1013.1mb 66f 71f
12:18 5 10 mph 1013.2mb 66f 72f
12:06 3 8 mph 1012.9mb 66f 72f
12:00 8 14 mph 1013mb 66f 72f
Qui 09/22 11:54 10 16 mph 1012.9mb 67f 72f
11:42 9 15 mph 1012.9mb 67f 72f
11:36 8 14 mph 1012.9mb 67f -
11:24 9 17 mph - - -
11:18 8 15 mph 1012.6mb 67f 72f
11:12 8 14 mph 1012.6mb 67f 72f
11:06 8 13 mph 1012.7mb 67f 72f
11:00 8 13 mph 1012.8mb 67f 72f
10:54 10 15 mph 1012.8mb 67f 72f
10:48 7 11 mph 1012.7mb 67f 72f
10:42 9 13 mph 1012.8mb 67f 72f
10:36 8 11 mph 1012.7mb 67f 72f
10:30 5 11 mph 1012.7mb 67f 72f
10:24 6 9 mph 1012.7mb 67f 73f
10:18 5 11 mph 1012.7mb 67f 73f
10:12 8 11 mph 1012.6mb 67f 73f
10:06 5 8 mph 1012.6mb 67f 73f
10:00 2 8 mph 1012.6mb 68f 73f
9:54 7 9 mph 1012.6mb 68f 73f
9:48 2 5 mph 1012.6mb 68f 73f
9:42 3 7 mph 1012.5mb 68f 73f
9:36 5 8 mph 1012.5mb 68f 73f
9:30 5 8 mph 1012.5mb 68f 72f
9:24 5 6 mph 1012.3mb 68f 72f
9:18  -  2 mph 1012.3mb 68f 70f
9:12 2 5 mph 1012.3mb 68f 70f
9:06 5 7 mph 1012.3mb 68f 68f
9:00 7 9 mph 1012.3mb 68f 69f
8:54 7 8 mph 1012.1mb 68f 70f
8:48 3 7 mph - - -
8:42 5 7 mph 1011.8mb 68f 73f
8:36 5 9 mph 1011.7mb 68f 73f
8:30 3 7 mph 1011.6mb 68f 70f
8:24 6 8 mph 1011.6mb 68f 69f
8:18 5 6 mph 1011.5mb 68f 69f
8:12 2 5 mph 1011.5mb 68f 69f
8:00 2 5 mph 1011.3mb 68f 69f
7:54 3 6 mph 1011.3mb 68f 68f
7:42 6 9 mph 1011.1mb 68f 68f
7:36 6 9 mph 1011mb 68f 68f
7:24 9 10 mph 1010.9mb - -
7:18 7 10 mph 1010.9mb 68f -
7:00  -  mph 1010.8mb 68f 68f
6:42 2 5 mph 1010.8mb 69f 68f
6:36 2 8 mph 1010.9mb 69f -
6:18 2 3 mph 1010.8mb 69f -
6:00 5 6 mph - 69f 68f
5:54 6 8 mph 1010.8mb 69f 67f
5:42 8 9 mph 1010.8mb 69f 67f
5:36 9 10 mph 1010.8mb 69f 67f
5:24 7 10 mph 1011mb 69f 68f
5:18 9 10 mph 1011mb 69f 68f
5:00 9 10 mph 1011.1mb 69f 68f
4:54 8 11 mph 1011.1mb 69f 68f
4:48 11 15 mph 1011.1mb 69f 68f
4:42 11 13 mph 1011.1mb 69f -
4:36 10 11 mph 1011.1mb 69f -
4:30 10 11 mph - 69f 67f
4:24 11 13 mph - 69f 68f
4:18 9 11 mph - 68f 68f
4:12 11 14 mph 1011.3mb 68f -
4:06 13 14 mph 1011.4mb 68f -
4:00 9 11 mph - 68f 68f
3:54 9 11 mph - 68f 68f
3:48 13 15 mph - - -
3:42 13 17 mph 1011.6mb 68f -
3:36 15 18 mph 1011.7mb 68f -
3:30 16 21 mph 1011.6mb 68f 67f
3:24 17 21 mph 1011.6mb 68f 67f
3:18 18 22 mph - - -
3:12 17 21 mph 1011.6mb 68f 66f
3:06 20 22 mph 1011.7mb 68f 66f
3:00 17 21 mph 1011.8mb 68f 66f
2:54 17 21 mph 1011.8mb 68f 66f
2:48 17 22 mph 1011.9mb 68f -
2:42 21 22 mph 1011.9mb 68f 65f
2:36 20 22 mph 1011.8mb 68f 66f
2:30 20 22 mph 1011.9mb 68f 66f
2:24 20 22 mph 1012mb 68f 66f
2:18 20 22 mph 1012mb 68f 66f
2:12 20 22 mph 1012.1mb 68f 66f
2:06 21 22 mph 1012.2mb 68f 66f
2:00 18 21 mph 1012.4mb 68f 66f
1:54 17 21 mph 1012.4mb 67f 66f
1:48 17 21 mph 1012.6mb 67f 67f
1:42 18 21 mph 1012.8mb 67f 67f
1:36 17 21 mph 1012.7mb 67f 67f
1:30 21 22 mph 1012.8mb 67f 67f
1:24 20 22 mph 1012.9mb 67f 67f
1:18 18 22 mph 1012.9mb - 67f
1:12 20 21 mph 1012.9mb - 66f
1:06 21 22 mph 1013mb - 66f
1:00 21 22 mph 1013.1mb 67f 66f
12:54 18 21 mph 1013.2mb 67f 66f
12:48 18 20 mph 1013.3mb 68f 66f
12:42 18 21 mph 1013.3mb 67f 66f
12:36 18 20 mph 1013.3mb 68f 66f
12:30 17 20 mph 1013.4mb 67f 66f
12:24 17 18 mph 1013.4mb 68f 66f
12:18 16 18 mph 1013.4mb 68f 66f
12:12 15 16 mph 1013.4mb 68f 66f
12:06 14 15 mph 1013.4mb 68f 66f
12:00 14 16 mph 1013.5mb 68f 66f
11:54 15 16 mph 1013.6mb 68f 66f
11:48 14 15 mph 1013.6mb 68f 66f
11:42 13 14 mph 1013.6mb 68f 66f
11:36 11 13 mph 1013.5mb 68f 66f
11:30 11 13 mph 1013.5mb 68f 66f
11:24 10 13 mph 1013.5mb 68f 66f
11:18 10 11 mph 1013.5mb 68f 66f
11:12 10 13 mph 1013.4mb 68f 66f
11:06 11 13 mph 1013.6mb 68f 67f
11:00 11 13 mph 1013.7mb 67f 67f
10:54 8
mph
1013.6mb 67f 67f
10:48 8
mph
1013.8mb 67f 67f
10:42 7
mph
1013.7mb 67f 67f
10:36 7
mph
1013.6mb 67f 67f
10:30 6
mph
1013.7mb 67f 67f
10:24 6 8 mph 1013.8mb 67f 67f
10:18 7 8 mph 1013.9mb 67f 67f
10:12 7 8 mph 1013.8mb 67f 67f
10:06 6 8 mph 1013.7mb 67f 67f
10:00 7 8 mph 1013.6mb 67f 67f
9:54 6 7 mph 1013.6mb 67f 67f
9:48 6
mph
1013.4mb 67f 67f
9:42 6
mph
1013.4mb 67f 67f
9:36 6 7 mph 1013.5mb 67f 67f
9:30 7 8 mph 1013.4mb 67f 67f
9:24 7 9 mph 1013.3mb 67f 67f
9:18 9 10 mph 1013.1mb 67f 68f
9:12 7 9 mph 1013mb 67f 68f
9:06 9 10 mph 1013mb 67f 68f
9:00 7 9 mph 1013mb 67f 68f
8:54 3 6 mph 1013mb 67f 68f
8:48 3 5 mph 1013.1mb 67f 68f
8:42 3 5 mph 1013mb 67f 68f
8:36 5 6 mph 1013mb 67f 69f
8:30 5 6 mph 1013mb 67f 69f
8:24  -  6 mph 1013mb 66f 70f
8:18 3 6 mph 1012.8mb 66f 69f
8:12 5 9 mph 1012.7mb 66f 69f
8:06 6 8 mph 1012.6mb 66f 69f
8:00 7 8 mph 1012.4mb 66f 68f
7:54 5 7 mph 1012.5mb 66f 68f
7:48 6 7 mph 1012.4mb 66f 68f
7:42 3 5 mph 1012.5mb 66f 68f
7:36 2 3 mph 1012.7mb 66f 67f
7:30 3 5 mph 1012.7mb 66f 67f
7:24 5 6 mph 1012.8mb 66f 67f
7:18 5 7 mph 1012.8mb 66f 67f
7:12 6 7 mph 1012.8mb 66f 67f
7:06 5 6 mph 1012.6mb 66f 67f
7:00 5 6 mph 1012.5mb 66f 67f
6:54 2 3 mph 1012.4mb 66f 67f
6:48  -  1 mph 1012.3mb 66f 67f
6:42  -  2 mph 1012.2mb 66f 67f
6:36 1 3 mph 1012mb 66f 67f
6:30 3 5 mph 1011.9mb 66f 67f
6:24 5 6 mph 1012mb 66f 67f
6:18 5 7 mph 1011.9mb 66f 67f
6:12 5 7 mph 1011.9mb 65f 67f
6:06 5 6 mph 1011.9mb 65f 67f
6:00 3 6 mph 1012mb 65f 67f
5:54 6
mph
1012mb 65f 67f
5:48 3 5 mph 1012mb 65f 67f
5:42 5 8 mph 1011.9mb 65f 67f
5:36 5 7 mph 1011.9mb 65f 67f
5:30 2 5 mph 1011.9mb 65f 67f
5:24 3 6 mph 1011.8mb 66f 66f
5:18 5 6 mph 1011.6mb 66f 66f
5:12 6 7 mph 1011.7mb 65f 66f
5:06 5 6 mph 1011.8mb 65f 66f
5:00 6 7 mph 1011.8mb 65f 66f
4:54 6 7 mph 1011.8mb 65f 66f
4:48 7 8 mph 1011.9mb 65f 66f
4:42 7
mph
1011.8mb 65f 66f
4:36 5 7 mph 1011.7mb 65f 65f
4:30 6 7 mph 1011.6mb 65f 65f
4:24 5 6 mph 1011.6mb 65f 65f
4:18 6 7 mph 1011.6mb 65f 65f
4:12 6
mph
1011.7mb 66f 66f
4:06 5 6 mph 1011.8mb 66f 65f
4:00 5 6 mph 1011.8mb 66f 66f
3:54 5 7 mph 1011.7mb 66f 66f
3:48 6 7 mph 1011.8mb 66f 66f
3:42 6
mph
1011.7mb 66f 65f
3:36 6
mph
1011.7mb 66f 66f
3:30 3 6 mph 1011.8mb 66f 66f
3:24 5 6 mph 1011.9mb 66f 66f
3:18 5 6 mph 1011.8mb 66f 66f
3:12 3 5 mph 1011.7mb 66f 66f
3:06 5
mph
1011.8mb 66f 66f
3:00 3 5 mph 1011.8mb 66f 66f
2:54 3
mph
1011.8mb 66f 66f
2:48 1 2 mph 1011.8mb 66f 67f
2:42 2 3 mph 1011.7mb 66f 67f
2:36 3 5 mph 1011.7mb 66f 67f
2:30 3 5 mph 1011.8mb 66f 67f
2:24 5
mph
1011.8mb 66f 67f
2:18 5
mph
1011.8mb 66f -
2:12 5
mph
1011.8mb 66f 67f
2:06 3 5 mph 1011.7mb 66f 67f
2:00 3
mph
1011.7mb 66f 67f
1:54 3 5 mph 1011.6mb 66f 67f
1:48 3 5 mph 1011.6mb 66f 67f
1:42 3 5 mph 1011.6mb 65f 67f
1:36 3
mph
1011.6mb 65f 67f
1:30 2 3 mph - - -
1:24 2 3 mph 1011.6mb 65f 67f
1:18 2 3 mph 1011.6mb 64f 67f
1:12 2 3 mph 1011.6mb 65f 67f
1:06 2
mph
1011.6mb 65f 67f
1:00 2 3 mph 1011.6mb 65f 67f
12:54 3 5 mph 1011.7mb 65f 67f
12:48 3 5 mph 1011.7mb 65f 67f
12:42 3
mph
1011.7mb 65f 67f
12:36 3
mph
1011.6mb 65f 67f
12:30 3
mph
1011.6mb 65f 67f
12:24 3
mph
1011.6mb 65f 67f
12:18 2 3 mph 1011.7mb 65f 67f
12:12 3 5 mph 1011.7mb 65f 67f
12:06 3 5 mph 1011.8mb 66f 67f
12:00 3 5 mph 1011.8mb 66f 67f
Qua 09/21 11:54 3 5 mph 1011.8mb 67f 68f
11:48 5
mph
1011.8mb 67f 67f
11:42 5
mph
1011.8mb 67f 67f
11:36 5 6 mph 1011.8mb 68f 67f
11:30 6 7 mph 1011.8mb 68f 68f
11:24 6 7 mph 1011.7mb 68f 67f
11:18 7 8 mph 1011.7mb 68f 67f
11:12 7 8 mph 1011.7mb 68f 67f
11:06 7
mph
1011.7mb 68f 67f
11:00 7 8 mph 1011.6mb 69f -
10:54 8
mph
1011.5mb 69f 67f
10:48 6 8 mph 1011.5mb 69f 68f
10:42 6
mph
1011.5mb 69f -
10:36 6 7 mph 1011.4mb 69f -
10:30 6 9 mph 1011.3mb 69f 68f
10:24 8 10 mph 1011.2mb 69f 68f
10:18 8 9 mph 1011.1mb 69f 68f
10:12 5 8 mph 1011.1mb 69f 68f
10:06 7
mph
1011mb 69f 68f
10:00 6 9 mph 1010.9mb 69f 67f
9:54 7 8 mph 1010.9mb 69f 67f
9:48 6 8 mph 1010.9mb 69f 68f
9:42 8 9 mph 1010.9mb 69f 68f
9:36 6 7 mph 1010.9mb 69f 68f
9:30 6 7 mph 1010.9mb 69f 68f
9:24 6 7 mph 1010.8mb 68f 67f
9:18 6
mph
1010.8mb 68f 67f
9:12 5 6 mph 1010.8mb 68f 67f
9:06 5
mph
1010.8mb 68f 67f
9:00 3 5 mph 1010.8mb 68f 67f
8:54 3 5 mph 1010.8mb 68f 67f
8:48 5
mph
- - -
8:42 3 5 mph 1010.8mb 68f 67f
8:36 3
mph
1010.8mb 68f 68f
8:30 3
mph
1010.7mb 68f 68f
8:24 2 3 mph 1010.7mb 68f 68f
8:18 3 5 mph 1010.6mb 68f 67f
8:12 3 5 mph 1010.5mb 68f 67f
8:06 3 5 mph 1010.6mb 68f 68f
8:00 3 5 mph 1010.4mb 68f 68f
7:54 3
mph
1010.4mb 68f 68f
7:48 2 5 mph 1010.4mb 68f 68f
7:42 3 6 mph 1010.3mb 68f 68f
7:36 6 7 mph 1010.4mb 68f 68f
7:30 6 7 mph 1010.4mb 68f -
7:24 6 7 mph 1010.5mb 68f -
7:18 7
mph
- - -
7:12 6 8 mph 1010.5mb 69f 68f
7:06 7 8 mph 1010.5mb 69f 68f
7:00 7
mph
1010.4mb 69f 68f
6:54 6 9 mph 1010.4mb 69f 68f
6:48 8 9 mph - - -
6:42 7 8 mph - 69f 68f
6:36 7 9 mph - 69f 68f
6:30 8 9 mph 1010.5mb 69f -
6:24 8 9 mph 1010.5mb 69f -
6:18 9 10 mph 1010.5mb - -
6:12 8 9 mph 1010.5mb 70f 69f
6:06 7 8 mph 1010.5mb 70f 69f
6:00 7 8 mph 1010.5mb 70f 69f
5:54 8 10 mph 1010.5mb 70f 69f
5:48 9 10 mph - - -
5:42 7 9 mph 1010.5mb 70f 69f
5:36 7 9 mph 1010.6mb 70f 69f
5:30 8 9 mph 1010.5mb 70f 69f
5:24 9 10 mph 1010.5mb 70f 68f
5:18 9 10 mph 1010.5mb 70f 68f
5:12  -  mph 1010.5mb 69f 68f
5:06  -  mph 1010.5mb 70f 69f
5:00 8 9 mph 1010.5mb 69f 69f
4:54 8 9 mph 1010.4mb 69f 69f
4:48 9 11 mph - - -
4:42 10
mph
1010.5mb 70f -
4:36 9 10 mph 1010.6mb 70f -
4:30 9
mph
1010.6mb 70f 69f
4:24 8
mph
1010.6mb 70f 69f
4:18 7 9 mph - - -
4:12 7 8 mph - 70f 69f
4:06 7 8 mph - 70f 69f
4:00  -  mph 1010.9mb 70f 69f